Time;durP1;ratioP1;P1;durP2;ratioP2;P2;SDS_P1;SDS_P2;PMS_P1;PMS_P2;Temp;Humidity;BMP_temperature;BMP_pressure;BME280_temperature;BME280_humidity;BME280_pressure;Samples;Min_cycle;Max_cycle;Signal;HPM_P1;HPM_P2
2023/05/14 00:01:15;;;;;;;12.27;8.47;;;;;;;;;;5030634;28;20040;-57
2023/05/14 00:03:40;;;;;;;15.23;8.20;;;;;;;;;;5049082;28;20056;-57
2023/05/14 00:06:06;;;;;;;9.97;6.80;;;;;;;;;;5049241;28;20141;-57
2023/05/14 00:08:32;;;;;;;13.03;8.17;;;;;;;;;;5044623;28;20492;-57
2023/05/14 00:10:57;;;;;;;10.03;6.60;;;;;;;;;;5047398;28;20025;-57
2023/05/14 00:13:23;;;;;;;9.67;6.30;;;;;;;;;;5049194;28;20078;-57
2023/05/14 00:15:48;;;;;;;10.47;6.90;;;;;;;;;;5048081;28;20021;-57
2023/05/14 00:18:13;;;;;;;13.93;8.77;;;;;;;;;;5049461;28;20106;-57
2023/05/14 00:20:39;;;;;;;14.27;8.37;;;;;;;;;;5049473;28;20025;-57
2023/05/14 00:23:04;;;;;;;10.70;7.30;;;;;;;;;;5049228;28;20032;-57
2023/05/14 00:25:29;;;;;;;13.87;7.33;;;;;;;;;;5050876;28;20025;-56
2023/05/14 00:27:55;;;;;;;13.47;7.23;;;;;;;;;;5053112;28;20493;-57
2023/05/14 00:30:20;;;;;;;9.43;6.43;;;;;;;;;;5050827;28;20025;-57
2023/05/14 00:32:45;;;;;;;14.33;7.37;;;;;;;;;;5052781;28;20029;-57
2023/05/14 00:35:11;;;;;;;10.23;7.30;;;;;;;;;;5053157;28;20021;-56
2023/05/14 00:37:36;;;;;;;12.17;7.53;;;;;;;;;;5052786;28;20036;-57
2023/05/14 00:40:02;;;;;;;13.20;7.70;;;;;;;;;;5052296;28;20033;-57
2023/05/14 00:42:27;;;;;;;12.17;7.50;;;;;;;;;;5054355;28;20393;-57
2023/05/14 00:44:53;;;;;;;11.30;7.83;;;;;;;;;;5052652;28;20037;-58
2023/05/14 00:47:18;;;;;;;13.37;9.57;;;;;;;;;;5053074;28;20040;-57
2023/05/14 00:49:44;;;;;;;15.50;8.73;;;;;;;;;;5051721;28;20477;-57
2023/05/14 00:52:10;;;;;;;11.47;7.53;;;;;;;;;;5052259;28;20021;-57
2023/05/14 00:54:35;;;;;;;8.57;7.00;;;;;;;;;;5051948;28;20027;-58
2023/05/14 00:57:01;;;;;;;10.13;6.57;;;;;;;;;;5051253;28;20042;-57
2023/05/14 00:59:26;;;;;;;12.20;6.40;;;;;;;;;;5052528;28;20112;-57
2023/05/14 01:01:52;;;;;;;12.27;7.37;;;;;;;;;;5051356;28;20029;-57
2023/05/14 01:04:17;;;;;;;11.37;7.90;;;;;;;;;;5051816;28;20041;-57
2023/05/14 01:07:03;;;;;;;13.43;8.73;;;;;;;;;;5055060;28;20021;-57
2023/05/14 01:09:34;;;;;;;13.57;8.80;;;;;;;;;;5052873;28;20373;-56
2023/05/14 01:12:04;;;;;;;14.80;9.57;;;;;;;;;;5040093;28;20500;-58
2023/05/14 01:14:50;;;;;;;14.00;9.37;;;;;;;;;;5054567;28;20029;-57
2023/05/14 01:17:18;;;;;;;12.03;8.60;;;;;;;;;;4981402;28;20218;-57
2023/05/14 01:19:45;;;;;;;12.40;8.80;;;;;;;;;;4990327;28;20077;-57
2023/05/14 01:22:10;;;;;;;10.10;7.40;;;;;;;;;;4985617;28;20053;-57
2023/05/14 01:24:36;;;;;;;12.53;7.30;;;;;;;;;;4986855;28;20030;-57
2023/05/14 01:27:15;;;;;;;13.20;8.23;;;;;;;;;;4991326;28;20552;-58
2023/05/14 01:29:42;;;;;;;13.93;8.53;;;;;;;;;;4991526;28;20026;-57
2023/05/14 01:32:09;;;;;;;11.53;8.40;;;;;;;;;;4992044;28;20022;-57
2023/05/14 01:34:35;;;;;;;13.07;8.73;;;;;;;;;;4991033;28;20035;-57
2023/05/14 01:37:01;;;;;;;17.67;9.57;;;;;;;;;;4992711;28;20431;-57
2023/05/14 01:39:27;;;;;;;11.17;7.37;;;;;;;;;;4992700;28;20026;-57
2023/05/14 01:41:53;;;;;;;16.13;8.00;;;;;;;;;;4988684;28;20128;-55
2023/05/14 01:44:18;;;;;;;11.83;8.43;;;;;;;;;;4979431;28;20538;-57
2023/05/14 01:46:43;;;;;;;12.13;9.17;;;;;;;;;;4989808;28;20105;-58
2023/05/14 01:49:08;;;;;;;12.93;8.20;;;;;;;;;;4985872;28;20026;-57
2023/05/14 01:51:34;;;;;;;13.47;8.90;;;;;;;;;;4977595;28;20025;-57
2023/05/14 01:53:59;;;;;;;13.90;7.43;;;;;;;;;;5012476;28;20083;-57
2023/05/14 01:56:25;;;;;;;11.70;8.00;;;;;;;;;;5053249;28;20115;-57
2023/05/14 01:58:50;;;;;;;10.33;7.77;;;;;;;;;;5052375;28;20090;-57
2023/05/14 02:01:15;;;;;;;10.03;7.20;;;;;;;;;;5051677;28;20031;-57
2023/05/14 02:03:40;;;;;;;12.33;7.83;;;;;;;;;;5051279;28;20056;-57
2023/05/14 02:06:06;;;;;;;11.87;7.83;;;;;;;;;;5052942;28;20032;-56
2023/05/14 02:08:31;;;;;;;11.57;7.73;;;;;;;;;;5053577;28;20032;-57
2023/05/14 02:10:56;;;;;;;12.63;8.50;;;;;;;;;;5051990;28;20496;-57
2023/05/14 02:13:22;;;;;;;12.33;8.50;;;;;;;;;;5052153;28;20021;-57
2023/05/14 02:15:48;;;;;;;10.97;8.67;;;;;;;;;;5053371;28;20525;-57
2023/05/14 02:18:13;;;;;;;10.83;8.40;;;;;;;;;;5053889;28;20052;-57
2023/05/14 02:20:38;;;;;;;12.80;7.93;;;;;;;;;;5053110;28;20060;-57
2023/05/14 02:23:04;;;;;;;14.37;8.37;;;;;;;;;;5052228;28;20045;-57
2023/05/14 02:25:29;;;;;;;10.30;7.90;;;;;;;;;;5051979;28;20029;-57
2023/05/14 02:27:54;;;;;;;12.93;8.03;;;;;;;;;;5053339;28;20020;-57
2023/05/14 02:30:20;;;;;;;13.07;7.97;;;;;;;;;;5050558;28;20056;-57
2023/05/14 02:32:45;;;;;;;13.60;9.37;;;;;;;;;;5051754;28;20503;-57
2023/05/14 02:35:11;;;;;;;12.33;8.83;;;;;;;;;;5052812;28;20032;-57
2023/05/14 02:37:36;;;;;;;12.00;8.13;;;;;;;;;;5052863;28;20473;-57
2023/05/14 02:40:01;;;;;;;12.40;7.90;;;;;;;;;;5048017;28;20087;-57
2023/05/14 02:42:26;;;;;;;13.97;8.60;;;;;;;;;;5052507;28;20025;-57
2023/05/14 02:44:52;;;;;;;14.23;9.47;;;;;;;;;;5051378;28;20025;-57
2023/05/14 02:47:17;;;;;;;13.50;10.17;;;;;;;;;;5051082;28;20104;-57
2023/05/14 02:49:43;;;;;;;18.83;12.07;;;;;;;;;;5048345;28;20043;-57
2023/05/14 02:52:08;;;;;;;17.97;12.43;;;;;;;;;;5052741;28;20104;-57
2023/05/14 02:54:33;;;;;;;20.33;12.57;;;;;;;;;;5051181;28;20021;-57
2023/05/14 02:56:59;;;;;;;13.13;10.03;;;;;;;;;;5050402;28;20033;-57
2023/05/14 02:59:24;;;;;;;16.87;11.70;;;;;;;;;;5051512;28;20029;-57
2023/05/14 03:01:49;;;;;;;19.30;13.97;;;;;;;;;;5050021;28;20025;-57
2023/05/14 03:04:15;;;;;;;17.70;13.40;;;;;;;;;;5051525;28;20594;-57
2023/05/14 03:06:40;;;;;;;17.80;12.80;;;;;;;;;;5051248;28;20029;-59
2023/05/14 03:09:06;;;;;;;19.87;12.57;;;;;;;;;;5052489;28;20135;-59
2023/05/14 03:11:31;;;;;;;16.03;12.17;;;;;;;;;;5051703;28;20522;-59
2023/05/14 03:13:56;;;;;;;19.87;12.70;;;;;;;;;;5050911;28;20484;-59
2023/05/14 03:16:22;;;;;;;17.27;12.77;;;;;;;;;;5050726;28;20397;-60
2023/05/14 03:18:47;;;;;;;20.70;13.20;;;;;;;;;;5050274;28;20100;-59
2023/05/14 03:21:12;;;;;;;16.33;11.67;;;;;;;;;;5051442;28;20024;-59
2023/05/14 03:23:38;;;;;;;18.90;12.47;;;;;;;;;;5049813;28;20643;-59
2023/05/14 03:26:03;;;;;;;18.60;14.30;;;;;;;;;;5051138;28;20038;-59
2023/05/14 03:28:29;;;;;;;17.93;14.03;;;;;;;;;;5051658;28;20025;-59
2023/05/14 03:30:54;;;;;;;19.47;12.20;;;;;;;;;;5049111;28;20067;-59
2023/05/14 03:33:20;;;;;;;18.57;12.67;;;;;;;;;;5051125;28;20413;-59
2023/05/14 03:35:45;;;;;;;17.43;11.67;;;;;;;;;;5051667;28;20029;-59
2023/05/14 03:38:10;;;;;;;16.20;11.70;;;;;;;;;;5051905;28;20028;-59
2023/05/14 03:40:36;;;;;;;16.07;11.70;;;;;;;;;;5050295;28;20384;-59
2023/05/14 03:43:01;;;;;;;16.23;12.03;;;;;;;;;;5051757;28;20083;-59
2023/05/14 03:45:27;;;;;;;17.17;12.03;;;;;;;;;;5049825;28;20396;-59
2023/05/14 03:47:53;;;;;;;15.80;11.57;;;;;;;;;;5050894;28;20028;-59
2023/05/14 03:50:18;;;;;;;18.47;10.90;;;;;;;;;;5052067;28;20017;-59
2023/05/14 03:52:44;;;;;;;13.47;10.13;;;;;;;;;;5050047;28;20077;-59
2023/05/14 03:55:10;;;;;;;12.20;9.00;;;;;;;;;;5048635;28;20385;-59
2023/05/14 03:57:35;;;;;;;18.33;9.30;;;;;;;;;;5050421;28;20040;-59
2023/05/14 04:00:01;;;;;;;13.10;9.00;;;;;;;;;;5051075;28;20539;-59
2023/05/14 04:02:26;;;;;;;12.57;9.40;;;;;;;;;;5051176;28;20150;-59
2023/05/14 04:04:51;;;;;;;12.13;8.80;;;;;;;;;;5052810;28;20358;-60
2023/05/14 04:07:17;;;;;;;12.30;8.60;;;;;;;;;;5055241;28;20028;-59
2023/05/14 04:09:42;;;;;;;13.70;8.60;;;;;;;;;;5045272;28;20017;-59
2023/05/14 04:12:08;;;;;;;15.50;8.60;;;;;;;;;;5053915;28;20013;-59
2023/05/14 04:14:33;;;;;;;12.37;8.13;;;;;;;;;;5052450;28;20373;-59
2023/05/14 04:16:58;;;;;;;11.60;8.33;;;;;;;;;;5051088;28;20025;-59
2023/05/14 04:19:23;;;;;;;13.53;7.60;;;;;;;;;;5053950;28;20079;-59
2023/05/14 04:21:49;;;;;;;11.87;7.70;;;;;;;;;;5053636;28;20120;-59
2023/05/14 04:24:15;;;;;;;15.23;8.00;;;;;;;;;;5054898;28;20024;-59
2023/05/14 04:26:41;;;;;;;11.07;8.10;;;;;;;;;;5055332;28;20385;-59
2023/05/14 04:29:06;;;;;;;13.53;8.17;;;;;;;;;;5054814;28;20025;-59
2023/05/14 04:31:32;;;;;;;9.87;7.50;;;;;;;;;;5051090;28;20029;-59
2023/05/14 04:33:57;;;;;;;12.50;8.20;;;;;;;;;;5053628;28;20461;-59
2023/05/14 04:36:22;;;;;;;10.93;7.80;;;;;;;;;;5054924;28;20043;-59
2023/05/14 04:38:48;;;;;;;11.77;7.70;;;;;;;;;;5053859;28;20043;-59
2023/05/14 04:41:13;;;;;;;11.00;7.53;;;;;;;;;;5054565;28;20050;-59
2023/05/14 04:43:38;;;;;;;11.43;7.73;;;;;;;;;;5052479;28;20049;-59
2023/05/14 04:46:04;;;;;;;12.93;7.80;;;;;;;;;;5052969;28;20028;-59
2023/05/14 04:48:29;;;;;;;12.07;8.10;;;;;;;;;;5054170;28;20017;-59
2023/05/14 04:50:55;;;;;;;11.37;8.03;;;;;;;;;;5055317;28;20052;-59
2023/05/14 04:53:20;;;;;;;13.27;8.27;;;;;;;;;;5053379;28;20131;-59
2023/05/14 04:55:45;;;;;;;12.47;7.93;;;;;;;;;;5053507;28;20029;-58
2023/05/14 04:58:11;;;;;;;13.10;8.50;;;;;;;;;;5053317;28;20025;-59
2023/05/14 05:00:37;;;;;;;12.70;7.70;;;;;;;;;;5051295;28;20035;-59
2023/05/14 05:03:02;;;;;;;11.40;8.37;;;;;;;;;;5052267;28;20509;-59
2023/05/14 05:05:27;;;;;;;12.37;8.20;;;;;;;;;;5053618;28;20051;-59
2023/05/14 05:07:53;;;;;;;12.70;8.67;;;;;;;;;;5053246;28;20049;-59
2023/05/14 05:10:18;;;;;;;9.90;7.93;;;;;;;;;;5053465;28;20071;-59
2023/05/14 05:12:43;;;;;;;14.73;8.93;;;;;;;;;;5051958;28;20044;-59
2023/05/14 05:15:09;;;;;;;13.90;8.90;;;;;;;;;;5050787;28;20047;-59
2023/05/14 05:17:34;;;;;;;14.03;8.57;;;;;;;;;;5053441;28;20017;-59
2023/05/14 05:20:00;;;;;;;12.03;8.17;;;;;;;;;;5049701;28;20091;-59
2023/05/14 05:22:25;;;;;;;12.67;8.17;;;;;;;;;;5051714;28;20082;-59
2023/05/14 05:24:50;;;;;;;12.27;8.17;;;;;;;;;;5052726;28;20016;-59
2023/05/14 05:27:16;;;;;;;12.20;8.70;;;;;;;;;;5054059;28;20082;-59
2023/05/14 05:29:42;;;;;;;12.63;9.00;;;;;;;;;;5052465;28;20427;-59
2023/05/14 05:32:07;;;;;;;13.33;8.10;;;;;;;;;;5051610;28;20082;-59
2023/05/14 05:34:33;;;;;;;13.40;8.50;;;;;;;;;;5054147;28;20029;-59
2023/05/14 05:36:58;;;;;;;12.03;8.83;;;;;;;;;;5051971;28;20013;-59
2023/05/14 05:39:24;;;;;;;13.50;8.53;;;;;;;;;;5054116;28;20037;-59
2023/05/14 05:41:49;;;;;;;14.20;9.30;;;;;;;;;;5044381;28;20025;-59
2023/05/14 05:44:14;;;;;;;11.60;8.53;;;;;;;;;;5048613;28;20033;-59
2023/05/14 05:46:39;;;;;;;13.37;8.90;;;;;;;;;;5045951;28;20028;-59
2023/05/14 05:49:05;;;;;;;13.47;9.53;;;;;;;;;;5043005;28;20064;-59
2023/05/14 05:51:30;;;;;;;14.23;9.80;;;;;;;;;;5048648;28;20028;-59
2023/05/14 05:53:55;;;;;;;15.63;9.43;;;;;;;;;;5044522;28;20103;-59
2023/05/14 05:56:21;;;;;;;14.10;9.83;;;;;;;;;;5050685;28;20029;-59
2023/05/14 05:58:46;;;;;;;15.67;9.37;;;;;;;;;;5049184;28;20075;-59
2023/05/14 06:01:11;;;;;;;13.63;9.57;;;;;;;;;;5051744;28;20025;-59
2023/05/14 06:03:37;;;;;;;13.97;9.43;;;;;;;;;;5052198;28;20087;-59
2023/05/14 06:06:02;;;;;;;13.83;9.23;;;;;;;;;;5052522;28;20480;-59
2023/05/14 06:08:27;;;;;;;14.47;9.27;;;;;;;;;;5049964;28;20104;-59
2023/05/14 06:10:53;;;;;;;14.00;8.80;;;;;;;;;;5052531;28;20024;-59
2023/05/14 06:13:18;;;;;;;11.67;8.50;;;;;;;;;;5051741;28;20032;-59
2023/05/14 06:15:43;;;;;;;12.65;8.23;;;;;;;;;;5051232;28;20032;-59
2023/05/14 06:18:09;;;;;;;10.70;8.48;;;;;;;;;;5052072;28;20056;-58
2023/05/14 06:20:34;;;;;;;15.57;8.57;;;;;;;;;;5052015;28;20662;-59
2023/05/14 06:22:59;;;;;;;11.57;8.35;;;;;;;;;;5048981;28;20032;-58
2023/05/14 06:25:25;;;;;;;11.68;7.90;;;;;;;;;;5053195;28;20654;-58
2023/05/14 06:27:50;;;;;;;10.32;7.88;;;;;;;;;;5051820;28;20025;-59
2023/05/14 06:30:15;;;;;;;12.65;8.20;;;;;;;;;;5053266;28;20025;-58
2023/05/14 06:32:40;;;;;;;12.93;8.00;;;;;;;;;;5049185;28;20017;-58
2023/05/14 06:35:06;;;;;;;15.75;7.82;;;;;;;;;;5052967;28;20029;-59
2023/05/14 06:37:31;;;;;;;12.88;7.45;;;;;;;;;;5053539;28;20442;-59
2023/05/14 06:39:57;;;;;;;12.93;7.85;;;;;;;;;;5053891;28;20051;-58
2023/05/14 06:42:22;;;;;;;10.52;7.07;;;;;;;;;;5052917;28;20025;-59
2023/05/14 06:44:48;;;;;;;10.05;7.90;;;;;;;;;;5052584;28;20055;-59
2023/05/14 06:47:13;;;;;;;11.10;7.13;;;;;;;;;;5052706;28;20087;-59
2023/05/14 06:49:38;;;;;;;9.07;7.18;;;;;;;;;;5050556;28;20025;-59
2023/05/14 06:52:04;;;;;;;11.38;7.25;;;;;;;;;;5053160;28;20028;-59
2023/05/14 06:54:29;;;;;;;11.38;7.55;;;;;;;;;;5035284;28;20017;-58
2023/05/14 06:56:55;;;;;;;13.23;8.25;;;;;;;;;;5050258;28;20050;-58
2023/05/14 06:59:20;;;;;;;9.95;7.13;;;;;;;;;;5053144;28;20028;-59
2023/05/14 07:01:45;;;;;;;8.85;6.65;;;;;;;;;;5047564;28;20126;-59
2023/05/14 07:04:11;;;;;;;13.93;6.30;;;;;;;;;;5046731;28;20053;-59
2023/05/14 07:06:36;;;;;;;10.82;7.05;;;;;;;;;;5051325;28;20032;-59
2023/05/14 07:09:02;;;;;;;10.35;6.55;;;;;;;;;;5053432;28;20017;-58
2023/05/14 07:11:27;;;;;;;9.43;6.22;;;;;;;;;;5028856;28;20071;-58
2023/05/14 07:13:52;;;;;;;9.73;6.72;;;;;;;;;;5051967;28;20025;-58
2023/05/14 07:16:18;;;;;;;9.40;6.15;;;;;;;;;;5050770;28;20021;-59
2023/05/14 07:18:43;;;;;;;8.48;6.10;;;;;;;;;;5051611;28;20424;-60
2023/05/14 07:21:09;;;;;;;9.70;5.95;;;;;;;;;;5044184;28;20427;-59
2023/05/14 07:23:37;;;;;;;10.90;6.75;;;;;;;;;;5052271;28;20100;-59
2023/05/14 07:26:05;;;;;;;8.23;5.88;;;;;;;;;;5051435;28;20021;-59
2023/05/14 07:28:31;;;;;;;8.38;5.50;;;;;;;;;;5051357;28;20374;-60
2023/05/14 07:30:56;;;;;;;9.07;5.47;;;;;;;;;;5051963;28;20047;-60
2023/05/14 07:33:22;;;;;;;8.57;5.47;;;;;;;;;;5050171;28;20023;-59
2023/05/14 07:35:47;;;;;;;10.73;5.47;;;;;;;;;;5056629;28;20028;-59
2023/05/14 07:38:12;;;;;;;11.73;5.43;;;;;;;;;;5057252;28;20017;-59
2023/05/14 07:40:38;;;;;;;7.53;5.38;;;;;;;;;;5059555;28;20488;-59
2023/05/14 07:43:03;;;;;;;7.95;5.45;;;;;;;;;;5058193;28;20040;-59
2023/05/14 07:45:28;;;;;;;8.98;5.13;;;;;;;;;;5057348;28;20045;-59
2023/05/14 07:47:54;;;;;;;6.68;5.32;;;;;;;;;;5058096;28;20024;-60
2023/05/14 07:50:19;;;;;;;7.78;5.20;;;;;;;;;;5057799;28;20104;-60
2023/05/14 07:52:44;;;;;;;7.95;5.20;;;;;;;;;;5056494;28;20121;-60
2023/05/14 07:55:10;;;;;;;8.02;4.95;;;;;;;;;;5059089;28;20021;-60
2023/05/14 07:57:36;;;;;;;6.35;4.30;;;;;;;;;;5054728;28;20039;-60
2023/05/14 08:00:01;;;;;;;6.13;4.38;;;;;;;;;;5056106;28;20111;-60
2023/05/14 08:02:27;;;;;;;6.68;4.70;;;;;;;;;;5056336;28;20049;-60
2023/05/14 08:04:52;;;;;;;7.88;4.88;;;;;;;;;;5057157;28;20078;-59
2023/05/14 08:07:18;;;;;;;6.10;4.55;;;;;;;;;;5053529;28;20028;-59
2023/05/14 08:09:43;;;;;;;5.55;4.28;;;;;;;;;;5051328;28;20017;-60
2023/05/14 08:12:08;;;;;;;6.82;4.55;;;;;;;;;;5053122;28;20507;-59
2023/05/14 08:14:33;;;;;;;7.32;3.85;;;;;;;;;;5057726;28;20398;-60
2023/05/14 08:16:59;;;;;;;6.60;4.10;;;;;;;;;;5056720;28;20099;-60
2023/05/14 08:19:26;;;;;;;6.28;4.13;;;;;;;;;;5056453;28;20068;-60
2023/05/14 08:21:51;;;;;;;5.90;4.20;;;;;;;;;;5055536;28;20025;-60
2023/05/14 08:24:16;;;;;;;6.45;3.53;;;;;;;;;;5058996;28;20021;-60
2023/05/14 08:26:42;;;;;;;7.20;3.40;;;;;;;;;;5056992;28;20021;-60
2023/05/14 08:29:07;;;;;;;4.18;2.95;;;;;;;;;;5056489;28;20025;-60
2023/05/14 08:31:32;;;;;;;6.80;3.22;;;;;;;;;;5055838;28;20008;-60
2023/05/14 08:33:58;;;;;;;6.03;3.67;;;;;;;;;;5056519;28;20023;-60
2023/05/14 08:36:23;;;;;;;6.75;3.25;;;;;;;;;;5057271;28;20020;-59
2023/05/14 08:38:49;;;;;;;6.03;3.40;;;;;;;;;;5058950;28;20453;-60
2023/05/14 08:41:15;;;;;;;6.18;3.50;;;;;;;;;;5059066;28;20033;-60
2023/05/14 08:44:03;;;;;;;7.07;3.42;;;;;;;;;;5057240;28;20028;-60
2023/05/14 08:46:29;;;;;;;5.43;3.25;;;;;;;;;;5037891;28;20033;-59
2023/05/14 08:49:03;;;;;;;5.18;3.30;;;;;;;;;;5055257;28;20067;-60
2023/05/14 08:51:28;;;;;;;4.32;2.88;;;;;;;;;;5053873;28;20025;-60
2023/05/14 08:53:54;;;;;;;4.40;2.83;;;;;;;;;;5054347;28;20017;-60
2023/05/14 08:56:20;;;;;;;5.35;2.90;;;;;;;;;;5054916;28;20021;-60
2023/05/14 08:58:46;;;;;;;5.32;2.92;;;;;;;;;;5054523;28;20075;-60
2023/05/14 09:01:11;;;;;;;4.78;2.60;;;;;;;;;;5053119;28;20021;-60
2023/05/14 09:03:36;;;;;;;5.38;2.50;;;;;;;;;;5052949;28;20049;-60
2023/05/14 09:06:03;;;;;;;3.95;2.10;;;;;;;;;;5054088;28;20078;-59
2023/05/14 09:08:28;;;;;;;3.97;2.28;;;;;;;;;;5053214;28;20021;-60
2023/05/14 09:10:54;;;;;;;4.15;2.17;;;;;;;;;;5054330;28;20396;-60
2023/05/14 09:13:19;;;;;;;4.82;2.20;;;;;;;;;;5054666;28;20043;-60
2023/05/14 09:15:45;;;;;;;3.30;2.20;;;;;;;;;;5053023;28;20013;-60
2023/05/14 09:18:10;;;;;;;6.22;2.50;;;;;;;;;;5052053;28;20032;-61
2023/05/14 09:20:36;;;;;;;4.28;2.55;;;;;;;;;;5053191;28;20029;-60
2023/05/14 09:23:01;;;;;;;4.30;2.47;;;;;;;;;;5051369;28;20044;-60
2023/05/14 09:25:30;;;;;;;4.60;2.38;;;;;;;;;;5054563;28;20582;-60
2023/05/14 09:27:56;;;;;;;6.13;2.90;;;;;;;;;;5053247;28;20499;-61
2023/05/14 09:30:22;;;;;;;5.22;2.60;;;;;;;;;;5052591;28;20024;-60
2023/05/14 09:32:49;;;;;;;5.30;3.08;;;;;;;;;;5053954;28;20021;-60
2023/05/14 09:35:16;;;;;;;5.70;2.95;;;;;;;;;;5051951;28;20186;-60
2023/05/14 09:37:45;;;;;;;4.35;2.90;;;;;;;;;;5049764;28;20016;-60
2023/05/14 09:40:11;;;;;;;4.57;2.40;;;;;;;;;;5051551;28;20107;-60
2023/05/14 09:42:36;;;;;;;5.53;2.90;;;;;;;;;;5052625;28;20426;-60
2023/05/14 09:45:03;;;;;;;5.90;3.22;;;;;;;;;;5052951;28;20091;-61
2023/05/14 09:47:29;;;;;;;4.75;2.60;;;;;;;;;;5050434;28;20103;-60
2023/05/14 09:49:54;;;;;;;4.60;2.72;;;;;;;;;;5050737;28;20542;-60
2023/05/14 09:52:19;;;;;;;4.40;2.40;;;;;;;;;;5052048;28;20100;-60
2023/05/14 09:54:45;;;;;;;4.82;2.80;;;;;;;;;;5048147;28;20035;-61
2023/05/14 09:57:11;;;;;;;6.43;2.40;;;;;;;;;;5054484;28;20017;-61
2023/05/14 09:59:36;;;;;;;6.10;2.45;;;;;;;;;;5050124;28;20113;-60
2023/05/14 10:02:02;;;;;;;4.25;2.67;;;;;;;;;;5052068;28;20029;-60
2023/05/14 10:04:27;;;;;;;4.28;2.75;;;;;;;;;;5052180;28;20029;-60
2023/05/14 10:06:53;;;;;;;4.97;2.53;;;;;;;;;;5053128;28;20044;-62
2023/05/14 10:09:21;;;;;;;4.00;2.25;;;;;;;;;;5053987;28;20047;-62
2023/05/14 10:11:51;;;;;;;4.25;2.10;;;;;;;;;;5050576;28;20041;-62
2023/05/14 10:14:22;;;;;;;4.07;2.20;;;;;;;;;;5049929;28;20017;-62
2023/05/14 10:16:51;;;;;;;4.00;2.20;;;;;;;;;;5052532;28;20016;-62
2023/05/14 10:19:18;;;;;;;4.35;1.95;;;;;;;;;;5054326;28;20024;-61
2023/05/14 10:21:47;;;;;;;7.07;2.45;;;;;;;;;;5050846;28;20536;-61
2023/05/14 10:24:13;;;;;;;4.10;2.30;;;;;;;;;;5048010;28;20033;-61
2023/05/14 10:26:39;;;;;;;3.58;2.17;;;;;;;;;;5052320;28;20037;-61
2023/05/14 10:29:13;;;;;;;4.00;2.10;;;;;;;;;;5047639;28;20017;-60
2023/05/14 10:31:49;;;;;;;5.53;2.20;;;;;;;;;;5050725;28;20013;-61
2023/05/14 10:34:33;;;;;;;5.30;2.88;;;;;;;;;;5051112;28;20045;-71
2023/05/14 10:37:02;;;;;;;4.57;2.10;;;;;;;;;;5052536;28;20025;-71
2023/05/14 10:39:41;;;;;;;3.92;2.10;;;;;;;;;;5052363;28;20376;-71
2023/05/14 10:42:07;;;;;;;3.75;2.00;;;;;;;;;;5051075;28;20500;-71
2023/05/14 10:44:34;;;;;;;3.60;2.08;;;;;;;;;;5037627;28;20086;-65
2023/05/14 10:46:59;;;;;;;4.85;2.30;;;;;;;;;;5051587;28;20104;-63
2023/05/14 10:49:25;;;;;;;19.50;2.92;;;;;;;;;;5053763;28;20093;-63
2023/05/14 10:51:52;;;;;;;3.90;2.10;;;;;;;;;;5051043;28;20501;-66
2023/05/14 10:54:17;;;;;;;3.63;1.90;;;;;;;;;;5044080;28;20033;-69
2023/05/14 10:56:44;;;;;;;3.67;2.00;;;;;;;;;;5048740;28;20016;-73
2023/05/14 10:59:10;;;;;;;4.28;2.22;;;;;;;;;;5053066;28;20481;-74
2023/05/14 11:01:38;;;;;;;3.30;2.10;;;;;;;;;;5049513;28;20024;-75
2023/05/14 11:04:04;;;;;;;4.68;2.30;;;;;;;;;;5050549;28;20057;-75
2023/05/14 11:06:30;;;;;;;4.80;2.30;;;;;;;;;;5052078;28;20025;-73
2023/05/14 11:08:56;;;;;;;4.13;2.30;;;;;;;;;;5053511;28;20497;-74
2023/05/14 11:11:23;;;;;;;3.92;2.20;;;;;;;;;;5051539;28;20036;-74
2023/05/14 11:13:49;;;;;;;5.47;2.13;;;;;;;;;;5041914;28;20016;-75
2023/05/14 11:16:17;;;;;;;4.30;2.20;;;;;;;;;;5049006;28;20021;-75
2023/05/14 11:18:42;;;;;;;3.80;2.05;;;;;;;;;;5049705;28;20472;-75
2023/05/14 11:21:08;;;;;;;5.15;2.50;;;;;;;;;;5048659;28;20056;-74
2023/05/14 11:23:33;;;;;;;4.45;2.33;;;;;;;;;;5045754;28;20021;-74
2023/05/14 11:25:58;;;;;;;6.25;2.38;;;;;;;;;;5046209;28;20049;-73
2023/05/14 11:28:24;;;;;;;4.85;2.30;;;;;;;;;;5048491;28;20453;-77
2023/05/14 11:30:50;;;;;;;4.30;1.95;;;;;;;;;;5053518;28;20027;-76
2023/05/14 11:33:16;;;;;;;4.13;2.00;;;;;;;;;;5051498;28;20021;-76
2023/05/14 11:35:44;;;;;;;4.13;2.10;;;;;;;;;;5047419;28;20024;-77
2023/05/14 11:38:13;;;;;;;4.53;2.00;;;;;;;;;;5049925;28;20523;-76
2023/05/14 11:40:38;;;;;;;5.53;2.70;;;;;;;;;;5047381;28;20021;-76
2023/05/14 11:43:03;;;;;;;6.45;2.10;;;;;;;;;;5049168;28;20086;-76
2023/05/14 11:45:29;;;;;;;6.38;2.25;;;;;;;;;;5046564;28;20032;-75
2023/05/14 11:47:54;;;;;;;5.40;1.95;;;;;;;;;;5044918;28;20113;-76
2023/05/14 11:50:20;;;;;;;3.80;2.10;;;;;;;;;;5033523;28;20024;-72
2023/05/14 11:52:47;;;;;;;4.47;2.13;;;;;;;;;;5051721;28;20040;-78
2023/05/14 11:55:12;;;;;;;3.88;1.90;;;;;;;;;;5051684;28;20466;-78
2023/05/14 11:57:38;;;;;;;3.65;2.00;;;;;;;;;;5049275;28;20029;-77
2023/05/14 12:00:06;;;;;;;5.38;2.20;;;;;;;;;;5052181;28;20044;-76
2023/05/14 12:02:31;;;;;;;4.07;2.10;;;;;;;;;;5049804;28;20401;-71
2023/05/14 12:04:58;;;;;;;3.78;1.80;;;;;;;;;;5049146;28;20023;-70
2023/05/14 12:07:27;;;;;;;3.50;1.90;;;;;;;;;;5050326;28;20035;-70
2023/05/14 12:09:52;;;;;;;3.13;1.77;;;;;;;;;;5048221;28;20049;-71
2023/05/14 12:12:19;;;;;;;5.25;2.13;;;;;;;;;;5051639;28;20107;-70
2023/05/14 12:14:45;;;;;;;7.95;2.03;;;;;;;;;;5051000;28;20029;-72
2023/05/14 12:17:15;;;;;;;5.63;2.40;;;;;;;;;;5050207;28;20024;-71
2023/05/14 12:19:41;;;;;;;3.45;1.65;;;;;;;;;;5046822;28;20029;-70
2023/05/14 12:22:07;;;;;;;3.45;1.60;;;;;;;;;;5050173;28;20071;-70
2023/05/14 12:24:32;;;;;;;4.20;1.85;;;;;;;;;;5050594;28;20465;-70
2023/05/14 12:27:00;;;;;;;5.90;1.90;;;;;;;;;;5051375;28;20037;-70
2023/05/14 12:29:25;;;;;;;4.53;1.83;;;;;;;;;;5055446;28;20021;-69
2023/05/14 12:31:50;;;;;;;4.75;1.92;;;;;;;;;;5063480;28;20360;-70
2023/05/14 12:34:16;;;;;;;4.35;1.70;;;;;;;;;;5054322;28;20469;-70
2023/05/14 12:36:41;;;;;;;3.65;1.70;;;;;;;;;;5054291;28;20025;-70
2023/05/14 12:39:07;;;;;;;4.95;1.80;;;;;;;;;;5047728;28;20071;-70
2023/05/14 12:41:32;;;;;;;3.53;1.88;;;;;;;;;;5051467;28;20484;-70
2023/05/14 12:43:58;;;;;;;3.72;1.55;;;;;;;;;;5055731;28;20036;-70
2023/05/14 12:46:24;;;;;;;3.10;1.90;;;;;;;;;;5055196;28;20388;-70
2023/05/14 12:48:49;;;;;;;4.47;2.00;;;;;;;;;;5052728;28;20025;-71
2023/05/14 12:51:14;;;;;;;3.67;1.92;;;;;;;;;;5056100;28;20047;-71
2023/05/14 12:53:40;;;;;;;8.57;2.22;;;;;;;;;;5056019;28;20021;-71
2023/05/14 12:56:05;;;;;;;2.80;1.65;;;;;;;;;;5056009;28;20028;-71
2023/05/14 12:58:30;;;;;;;4.32;1.98;;;;;;;;;;5055600;28;20017;-70
2023/05/14 13:00:56;;;;;;;3.17;1.80;;;;;;;;;;5056022;28;20027;-70
2023/05/14 13:03:21;;;;;;;4.45;2.00;;;;;;;;;;5055347;28;20128;-70
2023/05/14 13:05:47;;;;;;;3.25;1.88;;;;;;;;;;5054177;28;20074;-70
2023/05/14 13:08:16;;;;;;;3.97;2.35;;;;;;;;;;5043832;28;20033;-69
2023/05/14 13:10:41;;;;;;;6.22;1.90;;;;;;;;;;5041821;28;20092;-70
2023/05/14 13:13:07;;;;;;;3.47;2.08;;;;;;;;;;5052867;28;20101;-71
2023/05/14 13:15:32;;;;;;;3.90;2.00;;;;;;;;;;5055650;28;20017;-72
2023/05/14 13:17:57;;;;;;;4.53;1.90;;;;;;;;;;5053243;28;20024;-73
2023/05/14 13:20:24;;;;;;;4.97;1.77;;;;;;;;;;5053881;28;20025;-73
2023/05/14 13:22:49;;;;;;;2.97;1.67;;;;;;;;;;5054868;28;20487;-70
2023/05/14 13:25:15;;;;;;;5.50;1.65;;;;;;;;;;5054856;28;20029;-71
2023/05/14 13:27:40;;;;;;;3.60;1.60;;;;;;;;;;5054636;28;20036;-71
2023/05/14 13:30:06;;;;;;;8.25;2.00;;;;;;;;;;5055306;28;20027;-72
2023/05/14 13:32:31;;;;;;;3.30;1.90;;;;;;;;;;5054179;28;20119;-73
2023/05/14 13:34:56;;;;;;;3.55;1.90;;;;;;;;;;5054331;28;20017;-71
2023/05/14 13:37:22;;;;;;;5.05;2.15;;;;;;;;;;5054815;28;20028;-70
2023/05/14 13:39:48;;;;;;;4.07;2.00;;;;;;;;;;5052371;28;20029;-70
2023/05/14 13:42:13;;;;;;;6.65;2.40;;;;;;;;;;5054948;28;20025;-70
2023/05/14 13:44:39;;;;;;;3.42;2.00;;;;;;;;;;5055028;28;20029;-69
2023/05/14 13:47:04;;;;;;;4.40;2.35;;;;;;;;;;5056925;28;20036;-67
2023/05/14 13:49:29;;;;;;;4.03;2.33;;;;;;;;;;5078503;28;20021;-68
2023/05/14 13:51:55;;;;;;;6.38;2.20;;;;;;;;;;5071861;28;20017;-67
2023/05/14 13:54:20;;;;;;;5.10;2.20;;;;;;;;;;5065277;28;20033;-67
2023/05/14 13:56:46;;;;;;;4.90;2.03;;;;;;;;;;5061946;28;20028;-67
2023/05/14 13:59:11;;;;;;;4.57;2.20;;;;;;;;;;5058366;28;20041;-68
2023/05/14 14:01:36;;;;;;;5.30;2.10;;;;;;;;;;5055083;28;20052;-69
2023/05/14 14:04:02;;;;;;;5.95;1.95;;;;;;;;;;5058426;28;20041;-70
2023/05/14 14:06:29;;;;;;;5.38;2.17;;;;;;;;;;5059757;28;20084;-70
2023/05/14 14:08:55;;;;;;;4.20;2.00;;;;;;;;;;5059431;28;20024;-69
2023/05/14 14:11:20;;;;;;;4.32;2.05;;;;;;;;;;5065868;28;20017;-72
2023/05/14 14:13:46;;;;;;;4.80;1.70;;;;;;;;;;5076986;28;20047;-73
2023/05/14 14:16:11;;;;;;;4.88;1.90;;;;;;;;;;5077704;28;20001;-73
2023/05/14 14:18:36;;;;;;;5.30;2.47;;;;;;;;;;5075997;28;20001;-73
2023/05/14 14:21:02;;;;;;;2.92;1.70;;;;;;;;;;5078818;28;20073;-73
2023/05/14 14:23:27;;;;;;;3.63;2.15;;;;;;;;;;5079235;28;20009;-71
2023/05/14 14:25:52;;;;;;;3.80;2.00;;;;;;;;;;5077798;28;20063;-72
2023/05/14 14:28:17;;;;;;;3.42;2.00;;;;;;;;;;5076552;28;20044;-72